Time;durP1;ratioP1;P1;durP2;ratioP2;P2;SDS_P1;SDS_P2;PMS_P1;PMS_P2;Temp;Humidity;BMP_temperature;BMP_pressure;BME280_temperature;BME280_humidity;BME280_pressure;Samples;Min_cycle;Max_cycle;Signal;HPM_P1;HPM_P2
2023/03/08 00:00:17;;;;;;;11.47;7.10;;;3.90;99.90;;;;;;4950129;29;20182;-38
2023/03/08 00:02:43;;;;;;;11.17;7.07;;;3.90;99.90;;;;;;4943035;28;20181;-37
2023/03/08 00:05:09;;;;;;;11.60;7.00;;;3.90;99.90;;;;;;4934346;29;20276;-39
2023/03/08 00:07:37;;;;;;;10.70;6.97;;;3.80;99.90;;;;;;4958680;28;20292;-38
2023/03/08 00:10:04;;;;;;;12.77;7.10;;;3.80;99.90;;;;;;4941364;29;20209;-38
2023/03/08 00:12:30;;;;;;;13.10;7.27;;;3.80;99.90;;;;;;4931176;29;20205;-41
2023/03/08 00:14:56;;;;;;;11.43;6.90;;;3.80;99.90;;;;;;4958493;28;20228;-37
2023/03/08 00:17:23;;;;;;;12.03;7.10;;;3.70;99.90;;;;;;4948946;29;20220;-37
2023/03/08 00:19:50;;;;;;;13.50;7.47;;;3.70;99.90;;;;;;4956195;28;20293;-37
2023/03/08 00:22:16;;;;;;;12.30;7.03;;;3.70;99.90;;;;;;4940487;29;20188;-37
2023/03/08 00:24:42;;;;;;;12.17;7.10;;;3.60;99.90;;;;;;4950663;29;20253;-37
2023/03/08 00:27:07;;;;;;;10.17;6.53;;;3.60;99.90;;;;;;4947581;28;20212;-37
2023/03/08 00:29:33;;;;;;;15.87;7.50;;;3.60;99.90;;;;;;4945383;29;20205;-38
2023/03/08 00:31:59;;;;;;;14.20;7.07;;;3.50;99.90;;;;;;4933936;29;20196;-38
2023/03/08 00:34:25;;;;;;;10.73;6.87;;;3.50;99.90;;;;;;4952082;29;20185;-38
2023/03/08 00:36:51;;;;;;;12.47;7.47;;;3.50;99.90;;;;;;4936901;29;20304;-37
2023/03/08 00:39:16;;;;;;;10.57;7.27;;;3.40;99.90;;;;;;4953170;29;20181;-37
2023/03/08 00:41:42;;;;;;;12.60;7.27;;;3.40;99.90;;;;;;4951950;29;20192;-37
2023/03/08 00:44:08;;;;;;;13.07;7.27;;;3.40;99.90;;;;;;4954576;29;20169;-37
2023/03/08 00:46:34;;;;;;;11.63;6.90;;;3.40;99.90;;;;;;4937714;29;20208;-37
2023/03/08 00:49:00;;;;;;;12.03;6.83;;;3.40;99.90;;;;;;4953631;29;20209;-38
2023/03/08 00:51:26;;;;;;;14.70;7.43;;;3.30;99.90;;;;;;4937106;29;20181;-37
2023/03/08 00:53:52;;;;;;;10.07;6.30;;;3.30;99.90;;;;;;4953529;29;20182;-37
2023/03/08 00:56:18;;;;;;;12.10;7.27;;;3.30;99.90;;;;;;4951496;28;20235;-41
2023/03/08 00:58:44;;;;;;;12.77;7.23;;;3.30;99.90;;;;;;4952713;29;20177;-39
2023/03/08 01:01:20;;;;;;;11.47;7.07;;;3.20;99.90;;;;;;4953299;29;20294;-38
2023/03/08 01:03:48;;;;;;;13.87;7.53;;;3.20;99.90;;;;;;4953020;29;20194;-37
2023/03/08 01:06:15;;;;;;;10.17;6.90;;;3.20;99.90;;;;;;4953307;28;20251;-37
2023/03/08 01:08:41;;;;;;;13.17;7.47;;;3.20;99.90;;;;;;4953122;29;20181;-37
2023/03/08 01:11:18;;;;;;;13.90;6.90;;;3.20;99.90;;;;;;4937561;29;20177;-38
2023/03/08 01:13:45;;;;;;;11.90;7.13;;;3.10;99.90;;;;;;4953123;29;20177;-37
2023/03/08 01:16:32;;;;;;;10.30;6.67;;;3.10;99.90;;;;;;4952905;28;20193;-38
2023/03/08 01:18:59;;;;;;;12.37;7.17;;;3.10;99.90;;;;;;4952933;29;20310;-38
2023/03/08 01:21:27;;;;;;;11.50;6.93;;;3.00;99.90;;;;;;4952503;29;20277;-37
2023/03/08 01:23:54;;;;;;;12.47;7.17;;;3.00;99.90;;;;;;4952700;29;20220;-39
2023/03/08 01:26:23;;;;;;;13.00;6.87;;;3.00;99.90;;;;;;4951390;28;20237;-37
2023/03/08 01:28:49;;;;;;;10.97;6.70;;;3.00;99.90;;;;;;4951876;29;20196;-39
2023/03/08 01:31:19;;;;;;;11.20;7.23;;;3.00;99.90;;;;;;4951254;29;20187;-37
2023/03/08 01:33:46;;;;;;;12.33;7.27;;;3.00;99.90;;;;;;4952701;28;20181;-37
2023/03/08 01:36:16;;;;;;;12.03;7.37;;;2.90;99.90;;;;;;4952279;28;20201;-37
2023/03/08 01:38:44;;;;;;;11.77;7.57;;;2.90;99.90;;;;;;4953969;29;20228;-37
2023/03/08 01:41:28;;;;;;;11.60;7.20;;;2.80;99.90;;;;;;4952645;29;20193;-38
2023/03/08 01:43:54;;;;;;;10.80;6.77;;;2.80;99.90;;;;;;4952424;29;20208;-37
2023/03/08 01:46:28;;;;;;;12.10;7.53;;;2.70;99.90;;;;;;4952367;28;20205;-38
2023/03/08 01:49:09;;;;;;;13.70;7.87;;;2.70;99.90;;;;;;4936565;29;20349;-38
2023/03/08 01:51:56;;;;;;;12.83;7.40;;;2.60;99.90;;;;;;4952266;29;20181;-39
2023/03/08 01:54:27;;;;;;;11.53;6.90;;;2.60;99.90;;;;;;4950799;29;20220;-39
2023/03/08 01:56:58;;;;;;;12.90;7.93;;;2.60;99.90;;;;;;4944678;29;20211;-37
2023/03/08 01:59:24;;;;;;;15.20;7.53;;;2.50;99.90;;;;;;4943757;29;20181;-37
2023/03/08 02:01:50;;;;;;;10.53;7.27;;;2.50;99.90;;;;;;4952356;29;20209;-37
2023/03/08 02:04:32;;;;;;;12.00;7.23;;;2.50;99.90;;;;;;4952071;29;20196;-37
2023/03/08 02:06:58;;;;;;;14.10;7.87;;;2.60;99.90;;;;;;4953138;28;20229;-39
2023/03/08 02:09:25;;;;;;;12.00;7.57;;;2.50;99.90;;;;;;4952083;29;20268;-37
2023/03/08 02:11:55;;;;;;;13.10;7.77;;;2.60;99.90;;;;;;4952721;29;20178;-37
2023/03/08 02:14:21;;;;;;;10.93;7.50;;;2.50;99.90;;;;;;4951588;29;20236;-37
2023/03/08 02:16:49;;;;;;;12.40;7.27;;;2.60;99.90;;;;;;4951880;28;20281;-37
2023/03/08 02:19:23;;;;;;;14.10;7.80;;;2.60;99.90;;;;;;4935640;29;20196;-37
2023/03/08 02:21:49;;;;;;;13.53;7.13;;;2.60;99.90;;;;;;4951927;29;20192;-38
2023/03/08 02:24:21;;;;;;;11.87;7.40;;;2.60;99.90;;;;;;4949401;28;20188;-37
2023/03/08 02:26:50;;;;;;;13.97;7.50;;;2.60;99.90;;;;;;4951612;28;20220;-38
2023/03/08 02:29:15;;;;;;;11.73;7.87;;;2.70;99.90;;;;;;4950374;29;20212;-37
2023/03/08 02:31:41;;;;;;;12.33;7.63;;;2.60;99.90;;;;;;4951255;29;20173;-37
2023/03/08 02:34:07;;;;;;;13.80;7.73;;;2.60;99.90;;;;;;4951444;29;20643;-37
2023/03/08 02:36:33;;;;;;;12.57;7.63;;;2.60;99.90;;;;;;4951274;28;20211;-38
2023/03/08 02:38:59;;;;;;;11.97;7.00;;;2.60;99.90;;;;;;4951978;29;20269;-37
2023/03/08 02:41:27;;;;;;;14.27;7.67;;;2.60;99.90;;;;;;4936127;28;20182;-37
2023/03/08 02:43:53;;;;;;;10.97;6.90;;;2.60;99.90;;;;;;4951585;29;20232;-37
2023/03/08 02:46:19;;;;;;;14.00;7.47;;;2.60;99.90;;;;;;4935502;29;20231;-38
2023/03/08 02:48:45;;;;;;;12.63;7.93;;;2.60;99.90;;;;;;4934373;29;20268;-37
2023/03/08 02:51:11;;;;;;;11.63;7.03;;;2.50;99.90;;;;;;4951717;29;20213;-37
2023/03/08 02:53:37;;;;;;;13.80;7.23;;;2.50;99.90;;;;;;4951497;29;20213;-38
2023/03/08 02:56:03;;;;;;;11.10;6.77;;;2.50;99.90;;;;;;4944136;28;20181;-39
2023/03/08 02:58:29;;;;;;;10.97;6.63;;;2.60;99.90;;;;;;4951422;29;20177;-37
2023/03/08 03:00:55;;;;;;;12.83;7.57;;;2.60;99.90;;;;;;4950913;29;20200;-37
2023/03/08 03:03:21;;;;;;;13.73;7.37;;;2.60;99.90;;;;;;4951232;29;20189;-37
2023/03/08 03:05:49;;;;;;;12.07;7.00;;;2.60;99.90;;;;;;4951269;29;20193;-37
2023/03/08 03:08:20;;;;;;;11.10;6.87;;;2.60;99.90;;;;;;4951264;28;20189;-39
2023/03/08 03:10:46;;;;;;;11.70;7.17;;;2.60;99.90;;;;;;4951358;29;20219;-39
2023/03/08 03:13:13;;;;;;;12.63;7.43;;;2.60;99.90;;;;;;4951045;29;20184;-37
2023/03/08 03:15:39;;;;;;;11.33;7.30;;;2.60;99.90;;;;;;4953183;28;20185;-37
2023/03/08 03:18:05;;;;;;;12.27;7.53;;;2.70;99.90;;;;;;4939299;29;20208;-37
2023/03/08 03:20:33;;;;;;;12.67;7.50;;;2.70;99.90;;;;;;4955351;29;20231;-37
2023/03/08 03:22:58;;;;;;;11.70;7.30;;;2.80;99.90;;;;;;4955338;29;20185;-38
2023/03/08 03:25:37;;;;;;;13.73;8.10;;;2.80;99.90;;;;;;4943552;29;20649;-38
2023/03/08 03:28:03;;;;;;;14.17;7.47;;;2.80;99.90;;;;;;4939237;29;20205;-38
2023/03/08 03:30:30;;;;;;;11.13;6.83;;;2.90;99.90;;;;;;4955049;29;20209;-38
2023/03/08 03:32:57;;;;;;;13.50;7.70;;;2.90;99.90;;;;;;4955122;29;20188;-37
2023/03/08 03:35:27;;;;;;;13.37;7.83;;;3.00;99.90;;;;;;4938077;29;20177;-38
2023/03/08 03:37:53;;;;;;;13.43;7.90;;;3.00;99.90;;;;;;4937613;29;20193;-39
2023/03/08 03:40:19;;;;;;;12.37;7.70;;;3.00;99.90;;;;;;4954580;29;20185;-38
2023/03/08 03:42:48;;;;;;;10.93;7.10;;;3.00;99.90;;;;;;4955052;28;20209;-37
2023/03/08 03:45:14;;;;;;;13.13;8.37;;;3.10;99.90;;;;;;4954263;28;20288;-37
2023/03/08 03:47:41;;;;;;;13.33;8.50;;;3.10;99.90;;;;;;4954913;28;20252;-43
2023/03/08 03:50:08;;;;;;;13.93;7.87;;;3.10;99.90;;;;;;4954395;28;20216;-39
2023/03/08 03:52:52;;;;;;;12.90;8.07;;;3.10;99.90;;;;;;4954622;29;20178;-39
2023/03/08 03:55:18;;;;;;;12.67;7.93;;;3.10;99.90;;;;;;4936360;29;20173;-39
2023/03/08 03:57:44;;;;;;;14.93;7.90;;;3.10;99.90;;;;;;4951191;28;20194;-38
2023/03/08 04:00:15;;;;;;;13.57;7.70;;;3.10;99.90;;;;;;4936204;29;20184;-37
2023/03/08 04:02:44;;;;;;;13.87;7.87;;;3.10;99.90;;;;;;4923169;29;20261;-38
2023/03/08 04:05:12;;;;;;;12.20;8.20;;;3.00;99.90;;;;;;4953825;29;20181;-37
2023/03/08 04:07:38;;;;;;;16.60;8.63;;;3.10;99.90;;;;;;4954126;28;20232;-38
2023/03/08 04:10:06;;;;;;;12.83;8.37;;;3.10;99.90;;;;;;4954283;28;20215;-37
2023/03/08 04:12:32;;;;;;;14.63;8.60;;;3.10;99.90;;;;;;4938459;29;20177;-38
2023/03/08 04:14:58;;;;;;;13.27;7.70;;;3.10;99.90;;;;;;4937819;29;20189;-40
2023/03/08 04:17:28;;;;;;;14.87;8.67;;;3.10;99.90;;;;;;4954375;28;20332;-38
2023/03/08 04:19:55;;;;;;;15.77;8.50;;;3.10;99.90;;;;;;4953774;29;20185;-42
2023/03/08 04:22:21;;;;;;;16.07;9.50;;;3.10;99.90;;;;;;4954111;29;20186;-39
2023/03/08 04:24:51;;;;;;;14.87;9.20;;;3.00;99.90;;;;;;4953606;29;20193;-40
2023/03/08 04:27:27;;;;;;;14.17;8.97;;;3.00;99.90;;;;;;4952120;28;20201;-41
2023/03/08 04:29:53;;;;;;;15.27;8.53;;;3.00;99.90;;;;;;4953782;29;20344;-38
2023/03/08 04:32:21;;;;;;;13.93;8.57;;;3.10;99.90;;;;;;4953844;29;20202;-42
2023/03/08 04:34:52;;;;;;;15.00;8.63;;;3.10;99.90;;;;;;4937069;29;20178;-39
2023/03/08 04:37:21;;;;;;;17.03;10.10;;;3.10;99.90;;;;;;4937825;29;20205;-41
2023/03/08 04:39:51;;;;;;;19.03;11.07;;;3.10;99.90;;;;;;4922640;29;20301;-41
2023/03/08 04:42:17;;;;;;;18.83;10.17;;;3.10;99.90;;;;;;4937766;29;20218;-39
2023/03/08 04:44:44;;;;;;;18.07;10.23;;;3.10;99.90;;;;;;4953321;29;20186;-40
2023/03/08 04:47:12;;;;;;;15.97;10.13;;;3.10;99.90;;;;;;4937800;29;20209;-39
2023/03/08 04:49:43;;;;;;;14.30;9.80;;;3.20;99.90;;;;;;4937148;29;20201;-39
2023/03/08 04:52:09;;;;;;;15.10;8.90;;;3.10;99.90;;;;;;4953508;29;20191;-39
2023/03/08 04:54:37;;;;;;;17.50;9.83;;;3.10;99.90;;;;;;4953064;29;20639;-41
2023/03/08 04:57:12;;;;;;;14.67;8.83;;;3.10;99.90;;;;;;4951640;28;20236;-41
2023/03/08 04:59:38;;;;;;;16.50;9.33;;;3.20;99.90;;;;;;4925321;29;20228;-41
2023/03/08 05:02:05;;;;;;;18.57;9.23;;;3.20;99.90;;;;;;4937274;29;20276;-39
2023/03/08 05:04:34;;;;;;;14.87;9.00;;;3.20;99.90;;;;;;4952905;29;20319;-39
2023/03/08 05:07:00;;;;;;;14.90;9.83;;;3.20;99.90;;;;;;4952776;28;20300;-39
2023/03/08 05:09:28;;;;;;;15.27;9.13;;;3.20;99.90;;;;;;4954202;29;20208;-41
2023/03/08 05:11:57;;;;;;;12.60;8.80;;;3.30;99.90;;;;;;4953049;28;20189;-39
2023/03/08 05:14:24;;;;;;;16.27;9.27;;;3.30;99.90;;;;;;4951294;28;20213;-40
2023/03/08 05:16:55;;;;;;;15.03;9.37;;;3.30;99.90;;;;;;4951490;28;20224;-40
2023/03/08 05:19:21;;;;;;;15.10;9.57;;;3.30;99.90;;;;;;4952431;29;20182;-41
2023/03/08 05:21:50;;;;;;;15.67;10.70;;;3.40;99.90;;;;;;4936561;28;20185;-39
2023/03/08 05:24:16;;;;;;;22.97;12.97;;;3.40;99.90;;;;;;4936470;29;20638;-40
2023/03/08 05:26:42;;;;;;;20.23;12.30;;;3.40;99.90;;;;;;4947502;28;20205;-40
2023/03/08 05:29:09;;;;;;;19.53;10.97;;;3.40;99.90;;;;;;4949725;29;20334;-39
2023/03/08 05:31:38;;;;;;;18.50;10.57;;;3.40;99.90;;;;;;4952621;29;20276;-39
2023/03/08 05:34:09;;;;;;;17.00;10.40;;;3.40;99.90;;;;;;4951801;29;20182;-39
2023/03/08 05:36:36;;;;;;;21.43;10.30;;;3.40;99.90;;;;;;4952449;28;20204;-39
2023/03/08 05:39:02;;;;;;;16.80;10.73;;;3.50;99.90;;;;;;4951382;29;20188;-39
2023/03/08 05:41:36;;;;;;;16.60;9.97;;;3.50;99.90;;;;;;4951904;29;20299;-38
2023/03/08 05:44:03;;;;;;;15.60;10.33;;;3.50;99.90;;;;;;4936406;29;20284;-40
2023/03/08 05:46:31;;;;;;;18.03;10.87;;;3.60;99.90;;;;;;4952365;28;20292;-38
2023/03/08 05:48:58;;;;;;;20.43;12.03;;;3.60;99.90;;;;;;4951756;29;20232;-38
2023/03/08 05:51:24;;;;;;;17.70;11.43;;;3.70;99.90;;;;;;4952539;29;20180;-41
2023/03/08 05:53:53;;;;;;;18.50;10.97;;;3.70;99.90;;;;;;4936434;29;20189;-38
2023/03/08 05:56:22;;;;;;;20.17;11.10;;;3.70;99.90;;;;;;4952177;28;20205;-38
2023/03/08 05:59:20;;;;;;;20.33;12.67;;;3.80;99.90;;;;;;4949315;29;20185;-39
2023/03/08 06:01:46;;;;;;;19.93;12.87;;;3.80;99.90;;;;;;4952654;29;20225;-42
2023/03/08 06:04:25;;;;;;;22.97;12.40;;;3.80;99.90;;;;;;4950904;29;20212;-38
2023/03/08 06:06:51;;;;;;;23.50;12.70;;;3.90;99.90;;;;;;4947727;23;20723;-87
2023/03/08 06:09:20;;;;;;;23.07;13.30;;;3.90;99.90;;;;;;4955653;28;20216;-87
2023/03/08 06:11:46;;;;;;;20.83;12.27;;;4.00;99.90;;;;;;4955604;28;20526;-87
2023/03/08 06:14:13;;;;;;;20.80;12.90;;;4.00;99.90;;;;;;4955492;28;20231;-89
2023/03/08 06:16:39;;;;;;;22.20;14.00;;;4.10;99.90;;;;;;4956434;28;20649;-88
2023/03/08 06:19:06;;;;;;;19.20;12.10;;;4.10;99.90;;;;;;4957266;28;20212;-88
2023/03/08 06:21:33;;;;;;;22.23;13.10;;;4.10;99.90;;;;;;4955234;28;20180;-87
2023/03/08 06:24:02;;;;;;;19.77;13.53;;;4.10;99.90;;;;;;4943259;29;20184;-88
2023/03/08 06:26:28;;;;;;;23.63;13.17;;;4.20;99.90;;;;;;5006280;23;21098;-38
2023/03/08 06:28:54;;;;;;;19.67;12.57;;;4.20;99.90;;;;;;4960651;28;20215;-38
2023/03/08 06:31:24;;;;;;;22.77;13.10;;;4.20;99.90;;;;;;4989353;28;20183;-39
2023/03/08 06:33:51;;;;;;;21.30;12.87;;;4.20;99.90;;;;;;4973987;28;20238;-41
2023/03/08 06:36:21;;;;;;;25.10;13.17;;;4.20;99.90;;;;;;4969497;28;20190;-36
2023/03/08 06:38:49;;;;;;;20.03;12.30;;;4.20;99.90;;;;;;4974680;28;20184;-39
2023/03/08 06:41:18;;;;;;;21.60;12.70;;;4.30;99.90;;;;;;4973697;23;20720;-85
2023/03/08 06:43:47;;;;;;;19.93;12.13;;;4.30;99.90;;;;;;4971692;28;20165;-85
2023/03/08 06:46:16;;;;;;;21.73;12.47;;;4.40;99.90;;;;;;4953913;29;20641;-87
2023/03/08 06:48:43;;;;;;;19.47;11.93;;;4.40;99.90;;;;;;4953302;29;20181;-86
2023/03/08 06:51:09;;;;;;;20.23;12.50;;;4.50;99.90;;;;;;4953673;29;20209;-86
2023/03/08 06:53:39;;;;;;;28.60;12.57;;;4.50;99.90;;;;;;4935774;29;20185;-86
2023/03/08 06:56:12;;;;;;;19.67;12.20;;;4.50;99.90;;;;;;4952502;28;20236;-85
2023/03/08 06:58:39;;;;;;;19.17;12.17;;;4.60;99.90;;;;;;4955084;28;20177;-85
2023/03/08 07:01:08;;;;;;;20.60;12.50;;;4.60;99.90;;;;;;4936527;29;20601;-86
2023/03/08 07:03:34;;;;;;;18.63;10.83;;;4.60;99.90;;;;;;4952061;28;20187;-86
2023/03/08 07:06:10;;;;;;;19.17;11.93;;;4.60;99.90;;;;;;4951907;28;20207;-86
2023/03/08 07:08:38;;;;;;;20.20;13.17;;;4.60;99.90;;;;;;4952684;29;20185;-86
2023/03/08 07:11:05;;;;;;;18.70;11.90;;;4.60;99.90;;;;;;4935802;29;20304;-85
2023/03/08 07:13:31;;;;;;;19.17;12.37;;;4.60;99.90;;;;;;4952577;28;20182;-86
2023/03/08 07:15:58;;;;;;;19.37;12.50;;;4.70;99.90;;;;;;4952121;28;20202;-85
2023/03/08 07:18:24;;;;;;;19.33;12.70;;;4.70;99.90;;;;;;4936298;29;20650;-86
2023/03/08 07:20:55;;;;;;;19.03;11.93;;;4.70;99.90;;;;;;4936830;29;20192;-86
2023/03/08 07:23:21;;;;;;;19.90;11.67;;;4.70;99.90;;;;;;4953475;29;20201;-85
2023/03/08 07:25:47;;;;;;;18.17;11.77;;;4.80;99.90;;;;;;4951991;28;20208;-85
2023/03/08 07:28:13;;;;;;;19.23;11.97;;;4.80;99.90;;;;;;4951985;28;20276;-85
2023/03/08 07:30:39;;;;;;;17.40;11.23;;;4.80;99.90;;;;;;4952027;28;20209;-85
2023/03/08 07:33:05;;;;;;;17.47;11.07;;;4.90;99.90;;;;;;4952034;28;20213;-86
2023/03/08 07:35:31;;;;;;;22.57;13.13;;;4.90;99.90;;;;;;4953058;28;20202;-85
2023/03/08 07:37:57;;;;;;;19.17;11.70;;;5.00;99.90;;;;;;4951637;28;20214;-85
2023/03/08 07:40:23;;;;;;;17.20;10.93;;;4.90;99.90;;;;;;4936164;29;20245;-85
2023/03/08 07:42:49;;;;;;;18.13;11.80;;;5.00;99.90;;;;;;4951683;29;20272;-85
2023/03/08 07:45:47;;;;;;;21.90;11.20;;;5.00;99.90;;;;;;4937978;29;20209;-85
2023/03/08 07:48:13;;;;;;;17.60;11.23;;;5.10;99.90;;;;;;4951490;28;20185;-85
2023/03/08 07:50:39;;;;;;;24.33;13.80;;;5.10;99.90;;;;;;4935081;29;20302;-86
2023/03/08 07:53:06;;;;;;;18.90;11.60;;;5.10;99.90;;;;;;4935906;29;20273;-86
2023/03/08 07:55:33;;;;;;;22.67;13.60;;;5.20;99.90;;;;;;4934916;29;20205;-85
2023/03/08 07:57:59;;;;;;;25.37;15.37;;;5.20;99.90;;;;;;4950394;28;20178;-86
2023/03/08 08:00:25;;;;;;;23.50;14.50;;;5.20;99.90;;;;;;4950533;28;20191;-86
2023/03/08 08:02:52;;;;;;;20.10;12.87;;;5.20;99.90;;;;;;4955307;28;20189;-85
2023/03/08 08:05:20;;;;;;;18.13;12.47;;;5.20;99.90;;;;;;4939073;29;20230;-85
2023/03/08 08:07:47;;;;;;;18.40;12.43;;;5.20;99.90;;;;;;4954645;29;20181;-85
2023/03/08 08:10:13;;;;;;;18.97;12.83;;;5.20;99.90;;;;;;4946752;29;20203;-86
2023/03/08 08:12:39;;;;;;;24.27;14.23;;;5.30;99.90;;;;;;4938872;29;20242;-85
2023/03/08 08:15:05;;;;;;;22.37;12.93;;;5.30;99.90;;;;;;4954643;29;20202;-86
2023/03/08 08:17:31;;;;;;;19.77;12.57;;;5.40;99.90;;;;;;4939116;29;20189;-85
2023/03/08 08:19:58;;;;;;;20.90;13.00;;;5.40;99.90;;;;;;4955209;29;20189;-86
2023/03/08 08:22:24;;;;;;;20.03;13.23;;;5.40;99.90;;;;;;4954932;28;20191;-85
2023/03/08 08:24:50;;;;;;;18.17;11.60;;;5.50;99.90;;;;;;4938474;29;20220;-86
2023/03/08 08:27:16;;;;;;;17.30;10.93;;;5.50;99.90;;;;;;4957272;28;20300;-85
2023/03/08 08:29:45;;;;;;;18.10;11.60;;;5.50;99.90;;;;;;4957129;29;20205;-85
2023/03/08 08:32:11;;;;;;;15.60;11.37;;;5.60;99.90;;;;;;4956565;28;20295;-85
2023/03/08 08:34:37;;;;;;;15.60;10.90;;;5.70;99.90;;;;;;4963045;28;20197;-85
2023/03/08 08:37:03;;;;;;;16.63;11.10;;;5.80;99.90;;;;;;4970879;28;20179;-86
2023/03/08 08:39:29;;;;;;;16.63;11.77;;;5.80;99.90;;;;;;4964341;28;20175;-85
2023/03/08 08:41:54;;;;;;;18.47;10.73;;;5.80;99.90;;;;;;4973892;28;20202;-86
2023/03/08 08:44:20;;;;;;;17.30;11.23;;;5.90;99.90;;;;;;4973788;28;20205;-80
2023/03/08 08:46:50;;;;;;;15.70;10.33;;;5.90;99.90;;;;;;4969136;28;20216;-85
2023/03/08 08:49:15;;;;;;;16.63;10.00;;;6.00;99.90;;;;;;4955595;28;20215;-86
2023/03/08 08:51:41;;;;;;;16.73;10.53;;;6.00;99.90;;;;;;4934472;28;20218;-87
2023/03/08 08:54:07;;;;;;;17.73;10.50;;;6.00;99.90;;;;;;4955487;28;20239;-86
2023/03/08 08:56:33;;;;;;;15.70;10.87;;;6.10;99.90;;;;;;4957687;28;20184;-87
2023/03/08 08:59:01;;;;;;;16.37;10.67;;;6.10;99.90;;;;;;4955367;28;20269;-86
2023/03/08 09:01:30;;;;;;;18.93;11.63;;;6.00;99.90;;;;;;4974275;28;20181;-86
2023/03/08 09:03:56;;;;;;;16.63;11.30;;;6.00;99.90;;;;;;4961007;28;20176;-86
2023/03/08 09:06:23;;;;;;;16.67;10.87;;;6.00;99.90;;;;;;4956823;28;20186;-87
2023/03/08 09:08:55;;;;;;;17.43;10.70;;;6.00;99.90;;;;;;4954869;29;20188;-86
2023/03/08 09:11:22;;;;;;;16.53;11.33;;;6.10;99.90;;;;;;4954578;29;20203;-86
2023/03/08 09:13:49;;;;;;;18.37;10.67;;;6.10;99.90;;;;;;4953911;28;20266;-86
2023/03/08 09:16:25;;;;;;;14.43;8.80;;;6.10;99.90;;;;;;4954395;28;20213;-86
2023/03/08 09:18:51;;;;;;;11.83;8.57;;;6.20;99.90;;;;;;4954624;28;20215;-88
2023/03/08 09:21:18;;;;;;;10.50;7.47;;;6.30;99.90;;;;;;4953107;29;20263;-87
2023/03/08 09:23:44;;;;;;;10.70;6.80;;;6.40;99.90;;;;;;4953518;28;20192;-86
2023/03/08 09:26:10;;;;;;;10.23;6.87;;;6.60;99.90;;;;;;4953574;28;20215;-87
2023/03/08 09:28:36;;;;;;;7.70;5.60;;;6.70;99.90;;;;;;4937934;29;20192;-86
2023/03/08 09:31:11;;;;;;;7.67;5.23;;;6.80;99.90;;;;;;4937652;29;20556;-86
2023/03/08 09:33:42;;;;;;;8.43;5.20;;;7.00;99.90;;;;;;4954346;29;20210;-86
2023/03/08 09:36:09;;;;;;;6.13;4.47;;;7.10;99.90;;;;;;4954422;28;20209;-86
2023/03/08 09:38:35;;;;;;;6.63;4.80;;;7.30;99.90;;;;;;4954412;28;20185;-86
2023/03/08 09:41:07;;;;;;;11.63;5.23;;;7.40;99.90;;;;;;4954478;28;20259;-86
2023/03/08 09:43:53;;;;;;;6.83;4.90;;;7.40;99.90;;;;;;4953771;29;20183;-87
2023/03/08 09:46:29;;;;;;;7.07;4.60;;;7.60;99.90;;;;;;4936344;28;20195;-86
2023/03/08 09:48:59;;;;;;;6.97;4.53;;;7.70;99.90;;;;;;4961843;28;20270;-86
2023/03/08 09:51:32;;;;;;;6.13;4.07;;;7.80;99.90;;;;;;4945788;29;20197;-85
2023/03/08 09:54:05;;;;;;;6.67;4.20;;;7.90;99.90;;;;;;4953979;28;20228;-85
2023/03/08 09:56:34;;;;;;;6.80;4.10;;;8.00;99.90;;;;;;4955074;29;20172;-86
2023/03/08 09:59:17;;;;;;;7.27;4.30;;;8.00;99.90;;;;;;4953805;29;20208;-85
2023/03/08 10:02:13;;;;;;;5.80;4.47;;;8.10;99.90;;;;;;4953591;29;20192;-85
2023/03/08 10:04:48;;;;;;;5.10;3.83;;;8.20;99.90;;;;;;4964282;28;20197;-86
2023/03/08 10:07:34;;;;;;;7.23;4.40;;;8.20;99.90;;;;;;4973086;28;20180;-86
2023/03/08 10:10:06;;;;;;;7.93;3.97;;;8.10;99.90;;;;;;4960868;28;20324;-85
2023/03/08 10:13:01;;;;;;;6.17;4.00;;;8.20;99.90;;;;;;4953779;28;20185;-85
2023/03/08 10:15:31;;;;;;;5.23;3.60;;;8.20;99.90;;;;;;4953632;28;20193;-85
2023/03/08 10:18:08;;;;;;;4.77;3.63;;;8.20;99.90;;;;;;4953620;29;20187;-85
2023/03/08 10:20:37;;;;;;;6.90;4.93;;;8.30;99.90;;;;;;4953487;29;20590;-86
2023/03/08 10:23:15;;;;;;;7.00;3.80;;;8.30;99.90;;;;;;4937506;28;20260;-86
2023/03/08 10:25:42;;;;;;;6.10;3.60;;;8.30;99.90;;;;;;4954115;28;20216;-86
2023/03/08 10:28:18;;;;;;;5.03;3.90;;;8.40;99.90;;;;;;4949088;29;20186;-85
2023/03/08 10:30:57;;;;;;;5.43;3.20;;;8.50;99.90;;;;;;4953103;29;20220;-85
2023/03/08 10:33:32;;;;;;;4.87;3.27;;;8.60;99.90;;;;;;4959868;28;20227;-86
2023/03/08 10:36:17;;;;;;;4.80;3.13;;;8.70;99.90;;;;;;4942528;28;20287;-86
2023/03/08 10:39:15;;;;;;;5.57;2.97;;;8.80;99.90;;;;;;4970029;28;20263;-85
2023/03/08 10:41:57;;;;;;;3.53;2.20;;;9.00;99.90;;;;;;4970723;28;20184;-85
2023/03/08 10:44:35;;;;;;;4.27;2.40;;;9.20;99.90;;;;;;4972685;28;20200;-86
2023/03/08 10:47:17;;;;;;;3.73;2.60;;;9.30;99.90;;;;;;4972422;28;20176;-85
2023/03/08 10:49:44;;;;;;;2.77;2.20;;;9.50;99.90;;;;;;4969346;28;20333;-86
2023/03/08 10:52:26;;;;;;;3.33;2.20;;;9.80;99.90;;;;;;4956393;28;20208;-86
2023/03/08 10:55:05;;;;;;;2.27;2.00;;;10.00;99.90;;;;;;4972159;28;20196;-86
2023/03/08 10:57:32;;;;;;;3.07;2.07;;;10.10;99.90;;;;;;4953251;28;20225;-86
2023/03/08 11:00:25;;;;;;;9.70;2.27;;;10.20;99.90;;;;;;4953435;28;20220;-85
2023/03/08 11:03:15;;;;;;;3.17;1.50;;;10.20;99.90;;;;;;4934737;29;20260;-86
2023/03/08 11:06:13;;;;;;;2.30;1.50;;;10.30;99.90;;;;;;4953132;29;20288;-86
2023/03/08 11:08:54;;;;;;;2.10;1.20;;;10.50;99.90;;;;;;4952567;28;20216;-85
2023/03/08 11:11:20;;;;;;;3.17;1.20;;;10.70;99.90;;;;;;4952985;29;20677;-85
2023/03/08 11:13:48;;;;;;;5.33;1.20;;;10.80;99.90;;;;;;4952874;29;20189;-85
2023/03/08 11:16:37;;;;;;;1.30;1.20;;;11.00;99.90;;;;;;4954219;29;20191;-86
2023/03/08 11:19:37;;;;;;;1.20;0.80;;;11.20;99.90;;;;;;4936634;29;20191;-86
2023/03/08 11:22:24;;;;;;;2.10;0.80;;;11.40;99.90;;;;;;4952921;29;20236;-86
2023/03/08 11:25:10;;;;;;;0.60;0.60;;;11.60;99.90;;;;;;4952541;28;20246;-85
2023/03/08 11:27:42;;;;;;;1.03;0.50;;;11.60;99.90;;;;;;4942258;29;20263;-86
2023/03/08 11:30:16;;;;;;;1.30;0.50;;;11.80;99.90;;;;;;4933909;29;20215;-86
2023/03/08 11:33:09;;;;;;;1.77;0.60;;;11.80;99.90;;;;;;4949818;29;20183;-86
2023/03/08 11:35:37;;;;;;;1.57;0.40;;;11.80;99.90;;;;;;4949877;28;20209;-90
2023/03/08 11:38:24;;;;;;;1.37;0.70;;;11.80;99.90;;;;;;4953420;29;20188;-86
2023/03/08 11:41:20;;;;;;;0.67;0.67;;;11.80;99.90;;;;;;4968383;28;20231;-86
2023/03/08 11:43:49;;;;;;;1.47;0.63;;;11.80;99.90;;;;;;4951936;28;20189;-86
2023/03/08 11:46:23;;;;;;;1.17;0.70;;;11.80;99.90;;;;;;4956489;28;20201;-86
2023/03/08 11:49:10;;;;;;;1.47;0.70;;;11.90;99.90;;;;;;4956834;29;20186;-86
2023/03/08 11:51:47;;;;;;;2.83;0.90;;;11.90;99.90;;;;;;4956865;29;20200;-86
2023/03/08 11:54:25;;;;;;;1.47;0.90;;;11.90;99.90;;;;;;4955529;28;20215;-86
2023/03/08 11:56:58;;;;;;;1.67;0.90;;;12.00;99.90;;;;;;4959210;28;20237;-86
2023/03/08 11:59:42;;;;;;;0.97;0.80;;;12.00;99.90;;;;;;4955370;28;20281;-86
2023/03/08 12:02:20;;;;;;;0.90;0.70;;;12.00;99.90;;;;;;4957408;28;20246;-85
2023/03/08 12:05:11;;;;;;;0.70;0.50;;;12.00;99.90;;;;;;4954811;28;20204;-86
2023/03/08 12:07:54;;;;;;;1.60;0.90;;;12.00;99.90;;;;;;4955768;29;20211;-86
2023/03/08 12:10:41;;;;;;;2.53;0.83;;;12.00;99.90;;;;;;4965732;28;20237;-86
2023/03/08 12:13:20;;;;;;;1.33;0.60;;;12.10;99.90;;;;;;4951347;29;20178;-86
2023/03/08 12:16:02;;;;;;;0.93;0.57;;;12.10;99.90;;;;;;4955679;29;20291;-86
2023/03/08 12:18:56;;;;;;;3.00;0.70;;;12.10;99.90;;;;;;4973596;28;20182;-86
2023/03/08 12:21:40;;;;;;;0.80;0.70;;;12.30;99.90;;;;;;4963981;28;20193;-85
2023/03/08 12:24:39;;;;;;;1.17;0.70;;;12.50;99.90;;;;;;4967912;28;20183;-85
2023/03/08 12:27:11;;;;;;;1.23;0.53;;;12.40;99.90;;;;;;4963599;23;20227;-42
2023/03/08 12:30:05;;;;;;;1.03;0.80;;;12.40;99.90;;;;;;4990989;28;20218;-43
2023/03/08 12:32:35;;;;;;;1.63;0.73;;;12.40;99.90;;;;;;5001283;28;20665;-39
2023/03/08 12:35:28;;;;;;;1.20;0.70;;;12.40;99.90;;;;;;4994087;28;20178;-42
2023/03/08 12:37:56;;;;;;;0.60;0.50;;;12.40;99.90;;;;;;4975412;28;20260;-41
2023/03/08 12:40:36;;;;;;;1.70;0.83;;;12.50;99.90;;;;;;4967579;28;20177;-41
2023/03/08 12:43:12;;;;;;;2.27;0.70;;;12.50;99.90;;;;;;4976933;28;20194;-40
2023/03/08 12:45:39;;;;;;;0.60;0.60;;;12.60;99.90;;;;;;4960021;28;20186;-40
2023/03/08 12:48:05;;;;;;;0.70;0.60;;;12.70;99.90;;;;;;4988385;28;20610;-42
2023/03/08 12:50:44;;;;;;;0.50;0.50;;;12.70;99.90;;;;;;4995811;28;20211;-42
2023/03/08 12:53:34;;;;;;;2.33;0.90;;;12.70;99.90;;;;;;4990667;28;20301;-42
2023/03/08 12:56:01;;;;;;;1.37;0.53;;;12.70;99.90;;;;;;4994885;28;20229;-43
2023/03/08 12:58:28;;;;;;;0.53;0.53;;;12.90;99.90;;;;;;4965808;28;20222;-41
2023/03/08 13:01:00;;;;;;;2.50;1.70;;;12.90;99.90;;;;;;4977764;28;20212;-42
2023/03/08 13:03:40;;;;;;;1.27;0.70;;;12.90;99.90;;;;;;4975887;28;20724;-41